Time;durP1;ratioP1;P1;durP2;ratioP2;P2;SDS_P1;SDS_P2;PMS_P1;PMS_P2;Temp;Humidity;BMP_temperature;BMP_pressure;BME280_temperature;BME280_humidity;BME280_pressure;Samples;Min_cycle;Max_cycle;Signal;HPM_P1;HPM_P2
2023/10/28 00:00:29;;;;;;;;;;;9.00;99.90;;;;;;5012486;28;19929;-72
2023/10/28 00:02:56;;;;;;;;;;;9.10;99.90;;;;;;5012665;28;20016;-72
2023/10/28 00:05:23;;;;;;;;;;;9.20;99.90;;;;;;5012919;28;19932;-72
2023/10/28 00:07:49;;;;;;;;;;;9.20;99.90;;;;;;5013240;28;20012;-72
2023/10/28 00:10:16;;;;;;;;;;;9.30;99.90;;;;;;5012664;28;20575;-72
2023/10/28 00:12:44;;;;;;;;;;;9.30;99.90;;;;;;5012571;28;19925;-72
2023/10/28 00:15:13;;;;;;;;;;;9.40;99.90;;;;;;5012616;28;20410;-72
2023/10/28 00:17:40;;;;;;;;;;;9.40;99.90;;;;;;5011735;28;20450;-72
2023/10/28 00:20:08;;;;;;;;;;;9.40;99.90;;;;;;5012690;28;19929;-72
2023/10/28 00:22:35;;;;;;;;;;;9.40;99.90;;;;;;5012146;28;19936;-72
2023/10/28 00:25:01;;;;;;;;;;;9.50;99.90;;;;;;5012494;28;19929;-72
2023/10/28 00:27:28;;;;;;;;;;;9.50;99.90;;;;;;5012094;28;19933;-72
2023/10/28 00:29:56;;;;;;;;;;;9.50;99.90;;;;;;5012159;28;20358;-72
2023/10/28 00:32:22;;;;;;;;;;;9.50;99.90;;;;;;5012391;28;19972;-72
2023/10/28 00:34:49;;;;;;;;;;;9.50;99.90;;;;;;5011568;28;20362;-72
2023/10/28 00:37:15;;;;;;;;;;;9.50;99.90;;;;;;5011663;28;19933;-72
2023/10/28 00:39:42;;;;;;;;;;;9.50;99.90;;;;;;5012164;28;19925;-72
2023/10/28 00:42:13;;;;;;;;;;;9.50;99.90;;;;;;5012318;28;20013;-71
2023/10/28 00:44:39;;;;;;;;;;;9.60;99.90;;;;;;5011930;28;19932;-72
2023/10/28 00:47:07;;;;;;;;;;;9.60;99.90;;;;;;5011872;28;19983;-72
2023/10/28 00:49:33;;;;;;;;;;;9.70;99.90;;;;;;5011427;28;20343;-72
2023/10/28 00:52:00;;;;;;;;;;;9.70;99.90;;;;;;5012108;28;19952;-72
2023/10/28 00:54:27;;;;;;;;;;;9.70;99.90;;;;;;5011937;28;19968;-72
2023/10/28 00:56:54;;;;;;;;;;;9.70;99.90;;;;;;5008805;28;20003;-73
2023/10/28 00:59:20;;;;;;;;;;;9.70;99.90;;;;;;5009963;28;20003;-72
2023/10/28 01:01:47;;;;;;;;;;;9.70;99.90;;;;;;5011166;28;19925;-71
2023/10/28 01:04:15;;;;;;;;;;;9.70;99.90;;;;;;5011234;28;19980;-71
2023/10/28 01:06:42;;;;;;;;;;;9.70;99.90;;;;;;5011361;28;19926;-71
2023/10/28 01:09:08;;;;;;;;;;;9.70;99.90;;;;;;5010931;28;19987;-72
2023/10/28 01:11:37;;;;;;;;;;;9.70;99.90;;;;;;5011075;28;19937;-72
2023/10/28 01:14:04;;;;;;;;;;;9.70;99.90;;;;;;5011175;28;19953;-72
2023/10/28 01:16:30;;;;;;;;;;;9.70;99.90;;;;;;5011308;28;19926;-72
2023/10/28 01:18:57;;;;;;;;;;;9.70;99.90;;;;;;5006484;28;20935;-72
2023/10/28 01:21:24;;;;;;;;;;;9.70;99.90;;;;;;5011831;28;19952;-72
2023/10/28 01:23:51;;;;;;;;;;;9.70;99.90;;;;;;5011131;28;20452;-71
2023/10/28 01:26:17;;;;;;;;;;;9.70;99.90;;;;;;5009295;28;19953;-72
2023/10/28 01:28:44;;;;;;;;;;;9.70;99.90;;;;;;5010031;28;19980;-72
2023/10/28 01:31:10;;;;;;;;;;;9.80;99.90;;;;;;5009429;28;19926;-72
2023/10/28 01:33:37;;;;;;;;;;;9.70;99.90;;;;;;5009361;28;20343;-72
2023/10/28 01:36:04;;;;;;;;;;;9.70;99.90;;;;;;5006481;28;19980;-73
2023/10/28 01:38:32;;;;;;;;;;;9.80;99.90;;;;;;5015703;28;19925;-72
2023/10/28 01:40:59;;;;;;;;;;;9.70;99.90;;;;;;5011690;28;20422;-72
2023/10/28 01:43:25;;;;;;;;;;;9.80;99.90;;;;;;5011163;28;19984;-72
2023/10/28 01:45:52;;;;;;;;;;;9.80;99.90;;;;;;5011874;28;19925;-72
2023/10/28 01:48:18;;;;;;;;;;;9.80;99.90;;;;;;5011144;28;19929;-72
2023/10/28 01:50:45;;;;;;;;;;;9.80;99.90;;;;;;5011041;28;19996;-72
2023/10/28 01:53:11;;;;;;;;;;;9.80;99.90;;;;;;5011390;28;19929;-71
2023/10/28 01:55:39;;;;;;;;;;;9.80;99.90;;;;;;5010991;28;19932;-72
2023/10/28 01:58:06;;;;;;;;;;;9.80;99.90;;;;;;5011100;28;19929;-72
2023/10/28 02:00:33;;;;;;;;;;;9.80;99.90;;;;;;5010771;28;19925;-72
2023/10/28 02:03:00;;;;;;;;;;;9.80;99.90;;;;;;5011117;28;19930;-72
2023/10/28 02:05:26;;;;;;;;;;;9.80;99.90;;;;;;5012527;28;19940;-72
2023/10/28 02:07:53;;;;;;;;;;;9.70;99.90;;;;;;5010905;28;19929;-72
2023/10/28 02:10:19;;;;;;;;;;;9.70;99.90;;;;;;5010918;28;19984;-72
2023/10/28 02:12:48;;;;;;;;;;;9.70;99.90;;;;;;5010752;28;19925;-72
2023/10/28 02:15:14;;;;;;;;;;;9.70;99.90;;;;;;5010878;28;19933;-72
2023/10/28 02:17:41;;;;;;;;;;;9.70;99.90;;;;;;5010934;28;19972;-72
2023/10/28 02:20:10;;;;;;;;;;;9.80;99.90;;;;;;5010901;28;19972;-72
2023/10/28 02:22:36;;;;;;;;;;;9.80;99.90;;;;;;5011238;28;19925;-73
2023/10/28 02:25:03;;;;;;;;;;;9.80;99.90;;;;;;5016021;28;19941;-72
2023/10/28 02:27:30;;;;;;;;;;;9.80;99.90;;;;;;5014129;28;19932;-71
2023/10/28 02:29:58;;;;;;;;;;;9.80;99.90;;;;;;5014639;28;19926;-71
2023/10/28 02:32:24;;;;;;;;;;;9.80;99.90;;;;;;5014722;28;19925;-71
2023/10/28 02:34:51;;;;;;;;;;;9.80;99.90;;;;;;5014308;28;20064;-72
2023/10/28 02:37:17;;;;;;;;;;;9.80;99.90;;;;;;5013796;28;20402;-73
2023/10/28 02:39:44;;;;;;;;;;;9.80;99.90;;;;;;5014138;28;19952;-71
2023/10/28 02:42:10;;;;;;;;;;;9.80;99.90;;;;;;5014086;28;20399;-72
2023/10/28 02:44:37;;;;;;;;;;;9.80;99.90;;;;;;5014560;28;19925;-72
2023/10/28 02:47:05;;;;;;;;;;;9.80;99.90;;;;;;5013514;28;20362;-72
2023/10/28 02:49:31;;;;;;;;;;;9.80;99.90;;;;;;5014531;28;19979;-72
2023/10/28 02:51:58;;;;;;;;;;;9.80;99.90;;;;;;5010241;28;19926;-71
2023/10/28 02:54:24;;;;;;;;;;;9.80;99.90;;;;;;5011336;28;19926;-71
2023/10/28 02:56:51;;;;;;;;;;;9.80;99.90;;;;;;5011709;28;20454;-72
2023/10/28 02:59:17;;;;;;;;;;;9.80;99.90;;;;;;5014378;28;19930;-72
2023/10/28 03:01:44;;;;;;;;;;;9.90;99.90;;;;;;5013587;28;19926;-72
2023/10/28 03:04:12;;;;;;;;;;;9.90;99.90;;;;;;5014166;28;19926;-71
2023/10/28 03:06:38;;;;;;;;;;;9.80;99.90;;;;;;5013363;28;19925;-71
2023/10/28 03:09:05;;;;;;;;;;;9.80;99.90;;;;;;5013348;28;19991;-71
2023/10/28 03:11:32;;;;;;;;;;;9.80;99.90;;;;;;5014053;28;20303;-71
2023/10/28 03:13:59;;;;;;;;;;;9.80;99.90;;;;;;5013507;28;20408;-71
2023/10/28 03:16:26;;;;;;;;;;;9.80;99.90;;;;;;5013437;28;19936;-71
2023/10/28 03:18:52;;;;;;;;;;;9.90;99.90;;;;;;5013427;28;19944;-71
2023/10/28 03:21:20;;;;;;;;;;;9.90;99.90;;;;;;5013621;28;19980;-71
2023/10/28 03:23:47;;;;;;;;;;;9.90;99.90;;;;;;5013179;28;19925;-71
2023/10/28 03:26:14;;;;;;;;;;;10.00;99.90;;;;;;5013371;28;19935;-71
2023/10/28 03:28:40;;;;;;;;;;;10.00;99.90;;;;;;5010316;28;19933;-71
2023/10/28 03:31:07;;;;;;;;;;;10.00;99.90;;;;;;5013214;28;19972;-72
2023/10/28 03:33:34;;;;;;;;;;;10.00;99.90;;;;;;5013679;28;19979;-71
2023/10/28 03:36:00;;;;;;;;;;;10.00;99.90;;;;;;5012139;28;19936;-71
2023/10/28 03:38:28;;;;;;;;;;;10.00;99.90;;;;;;5012598;28;19957;-71
2023/10/28 03:40:55;;;;;;;;;;;10.00;99.90;;;;;;5013271;28;19926;-71
2023/10/28 03:43:21;;;;;;;;;;;10.00;99.90;;;;;;5013591;28;20036;-71
2023/10/28 03:45:49;;;;;;;;;;;10.00;99.90;;;;;;5013107;28;19929;-71
2023/10/28 03:48:15;;;;;;;;;;;10.10;99.90;;;;;;5012683;28;19925;-71
2023/10/28 03:50:42;;;;;;;;;;;10.10;99.90;;;;;;5012764;28;20459;-71
2023/10/28 03:53:08;;;;;;;;;;;10.10;99.90;;;;;;5012972;28;19929;-71
2023/10/28 03:55:36;;;;;;;;;;;10.00;99.90;;;;;;5014175;28;20392;-71
2023/10/28 03:58:04;;;;;;;;;;;10.00;99.90;;;;;;5010822;28;21357;-71
2023/10/28 04:00:31;;;;;;;;;;;10.00;99.90;;;;;;5012923;28;19934;-71
2023/10/28 04:02:57;;;;;;;;;;;10.00;99.90;;;;;;5012565;28;20307;-71
2023/10/28 04:05:24;;;;;;;;;;;10.00;99.90;;;;;;5012619;28;19973;-71
2023/10/28 04:07:50;;;;;;;;;;;10.00;99.90;;;;;;5012436;28;19929;-71
2023/10/28 04:10:18;;;;;;;;;;;9.90;99.90;;;;;;5012806;28;19933;-71
2023/10/28 04:12:46;;;;;;;;;;;9.90;99.90;;;;;;5012724;28;20053;-71
2023/10/28 04:15:14;;;;;;;;;;;9.90;99.90;;;;;;5012435;28;19929;-71
2023/10/28 04:17:40;;;;;;;;;;;9.80;99.90;;;;;;5011700;28;20024;-71
2023/10/28 04:20:07;;;;;;;;;;;9.80;99.90;;;;;;5011880;28;19988;-71
2023/10/28 04:22:34;;;;;;;;;;;9.80;99.90;;;;;;5008732;28;19938;-70
2023/10/28 04:25:00;;;;;;;;;;;9.70;99.90;;;;;;5012501;28;19933;-71
2023/10/28 04:27:27;;;;;;;;;;;9.70;99.90;;;;;;5012183;28;20046;-71
2023/10/28 04:29:55;;;;;;;;;;;9.80;99.90;;;;;;5012455;28;19926;-71
2023/10/28 04:32:22;;;;;;;;;;;9.70;99.90;;;;;;5011654;28;20453;-71
2023/10/28 04:34:49;;;;;;;;;;;9.70;99.90;;;;;;5012284;28;19925;-71
2023/10/28 04:37:15;;;;;;;;;;;9.60;99.90;;;;;;5011736;28;20343;-70
2023/10/28 04:39:42;;;;;;;;;;;9.60;99.90;;;;;;5012418;28;19929;-70
2023/10/28 04:42:08;;;;;;;;;;;9.60;99.90;;;;;;5013215;28;19925;-70
2023/10/28 04:44:35;;;;;;;;;;;9.60;99.90;;;;;;5012117;28;19933;-71
2023/10/28 04:47:03;;;;;;;;;;;9.50;99.90;;;;;;5010925;28;19975;-70
2023/10/28 04:49:29;;;;;;;;;;;9.40;99.90;;;;;;5012189;28;19932;-70
2023/10/28 04:51:56;;;;;;;;;;;9.40;99.90;;;;;;5011868;28;19972;-70
2023/10/28 04:54:23;;;;;;;;;;;9.30;99.90;;;;;;5011848;28;20355;-70
2023/10/28 04:56:49;;;;;;;;;;;9.20;99.90;;;;;;5013504;28;19979;-70
2023/10/28 04:59:16;;;;;;;;;;;9.10;99.90;;;;;;5011854;28;20302;-71
2023/10/28 05:01:42;;;;;;;;;;;9.00;99.90;;;;;;5011399;28;19930;-71
2023/10/28 05:04:10;;;;;;;;;;;9.00;99.90;;;;;;5011452;28;20335;-71
2023/10/28 05:06:37;;;;;;;;;;;8.90;99.90;;;;;;5012012;28;19926;-70
2023/10/28 05:09:04;;;;;;;;;;;8.80;99.90;;;;;;5008935;28;20445;-70
2023/10/28 05:11:30;;;;;;;;;;;8.80;99.90;;;;;;5012747;28;20403;-71
2023/10/28 05:13:56;;;;;;;;;;;8.80;99.90;;;;;;5011258;28;19980;-71
2023/10/28 05:16:23;;;;;;;;;;;8.80;99.90;;;;;;5011092;28;19925;-70
2023/10/28 05:18:50;;;;;;;;;;;8.70;99.90;;;;;;5011450;28;19932;-70
2023/10/28 05:21:18;;;;;;;;;;;8.70;99.90;;;;;;5011821;28;19980;-71
2023/10/28 05:23:44;;;;;;;;;;;8.60;99.90;;;;;;5011178;28;19927;-71
2023/10/28 05:26:10;;;;;;;;;;;8.60;99.90;;;;;;5011527;28;20008;-71
2023/10/28 05:28:37;;;;;;;;;;;8.60;99.90;;;;;;5011085;28;19925;-70
2023/10/28 05:31:04;;;;;;;;;;;8.70;99.90;;;;;;5011096;28;19929;-70
2023/10/28 05:33:30;;;;;;;;;;;8.70;99.90;;;;;;5011141;28;20311;-70
2023/10/28 05:35:57;;;;;;;;;;;8.70;99.90;;;;;;5010640;28;19952;-70
2023/10/28 05:38:24;;;;;;;;;;;8.70;99.90;;;;;;5010810;28;20473;-71
2023/10/28 05:40:51;;;;;;;;;;;8.70;99.90;;;;;;5011592;28;19929;-71
2023/10/28 05:43:18;;;;;;;;;;;8.70;99.90;;;;;;5010918;28;20327;-71
2023/10/28 05:45:44;;;;;;;;;;;8.70;99.90;;;;;;5010863;28;20407;-71
2023/10/28 05:48:11;;;;;;;;;;;8.80;99.90;;;;;;5010894;28;19926;-71
2023/10/28 05:50:38;;;;;;;;;;;8.70;99.90;;;;;;5011384;28;20380;-70
2023/10/28 05:53:04;;;;;;;;;;;8.80;99.90;;;;;;5005159;28;19932;-71
2023/10/28 05:55:32;;;;;;;;;;;8.80;99.90;;;;;;5010782;28;20012;-71
2023/10/28 05:57:59;;;;;;;;;;;8.80;99.90;;;;;;5012090;28;19933;-71
2023/10/28 06:00:28;;;;;;;;;;;8.80;99.90;;;;;;5014422;28;19967;-71
2023/10/28 06:02:56;;;;;;;;;;;8.80;99.90;;;;;;5015221;28;19996;-71
2023/10/28 06:05:23;;;;;;;;;;;8.80;99.90;;;;;;5014800;28;19925;-71
2023/10/28 06:07:50;;;;;;;;;;;8.80;99.90;;;;;;5014658;28;19929;-71
2023/10/28 06:10:16;;;;;;;;;;;8.90;99.90;;;;;;5014601;28;20383;-70
2023/10/28 06:12:44;;;;;;;;;;;8.90;99.90;;;;;;5014734;28;19992;-71
2023/10/28 06:15:14;;;;;;;;;;;8.90;99.90;;;;;;5015676;28;19925;-71
2023/10/28 06:17:40;;;;;;;;;;;8.90;99.90;;;;;;5014892;28;19987;-71
2023/10/28 06:20:07;;;;;;;;;;;9.00;99.90;;;;;;5014742;28;19930;-71
2023/10/28 06:22:34;;;;;;;;;;;9.00;99.90;;;;;;5014937;28;20345;-71
2023/10/28 06:25:00;;;;;;;;;;;9.10;99.90;;;;;;5014266;28;19932;-71
2023/10/28 06:27:27;;;;;;;;;;;9.10;99.90;;;;;;5014260;28;19926;-71
2023/10/28 06:29:55;;;;;;;;;;;9.20;99.90;;;;;;5014524;28;19925;-71
2023/10/28 06:32:21;;;;;;;;;;;9.20;99.90;;;;;;5015748;28;19984;-70
2023/10/28 06:34:49;;;;;;;;;;;9.30;99.90;;;;;;5014465;28;20395;-70
2023/10/28 06:37:15;;;;;;;;;;;9.30;99.90;;;;;;5018712;28;19926;-71
2023/10/28 06:39:44;;;;;;;;;;;9.40;99.90;;;;;;5014032;28;19925;-71
2023/10/28 06:42:10;;;;;;;;;;;9.40;99.90;;;;;;5014441;28;19926;-71
2023/10/28 06:44:37;;;;;;;;;;;9.40;99.90;;;;;;5010880;28;19925;-71
2023/10/28 06:47:05;;;;;;;;;;;9.40;99.90;;;;;;5011922;28;19979;-70
2023/10/28 06:49:32;;;;;;;;;;;9.40;99.90;;;;;;5013928;28;19933;-70
2023/10/28 06:51:58;;;;;;;;;;;9.40;99.90;;;;;;5014118;28;19933;-71
2023/10/28 06:54:25;;;;;;;;;;;9.40;99.90;;;;;;5014229;28;19929;-71
2023/10/28 06:56:52;;;;;;;;;;;9.40;99.90;;;;;;5013628;28;19925;-71
2023/10/28 06:59:19;;;;;;;;;;;9.40;99.90;;;;;;5013793;28;20306;-71
2023/10/28 07:01:45;;;;;;;;;;;9.50;99.90;;;;;;5013660;28;19932;-71
2023/10/28 07:04:13;;;;;;;;;;;9.50;99.90;;;;;;5013342;28;19929;-71
2023/10/28 07:06:40;;;;;;;;;;;9.60;99.90;;;;;;5014635;28;19926;-70
2023/10/28 07:09:07;;;;;;;;;;;9.70;99.90;;;;;;5013420;28;19925;-71
2023/10/28 07:11:34;;;;;;;;;;;9.80;99.90;;;;;;5013802;28;19934;-71
2023/10/28 07:14:00;;;;;;;;;;;9.90;99.90;;;;;;5014019;28;19960;-71
2023/10/28 07:16:27;;;;;;;;;;;9.90;99.90;;;;;;5013368;28;19948;-72
2023/10/28 07:18:53;;;;;;;;;;;10.00;99.90;;;;;;5012597;28;19929;-73
2023/10/28 07:21:21;;;;;;;;;;;10.00;99.90;;;;;;5013082;28;19938;-72
2023/10/28 07:23:49;;;;;;;;;;;10.00;99.90;;;;;;5009743;28;19932;-72
2023/10/28 07:26:16;;;;;;;;;;;10.10;99.90;;;;;;5012716;28;19980;-72
2023/10/28 07:28:43;;;;;;;;;;;10.10;99.90;;;;;;5011907;28;19930;-72
2023/10/28 07:31:09;;;;;;;;;;;10.10;99.90;;;;;;5003924;28;20013;-72
2023/10/28 07:33:36;;;;;;;;;;;10.10;99.90;;;;;;5011298;28;20383;-72
2023/10/28 07:36:04;;;;;;;;;;;10.10;99.90;;;;;;5010156;28;19942;-71
2023/10/28 07:38:32;;;;;;;;;;;10.10;99.90;;;;;;5013293;28;19936;-72
2023/10/28 07:40:58;;;;;;;;;;;10.20;99.90;;;;;;5009115;28;19934;-71
2023/10/28 07:43:26;;;;;;;;;;;10.20;99.90;;;;;;5010456;28;20759;-73
2023/10/28 07:45:53;;;;;;;;;;;10.20;99.90;;;;;;5010978;28;19926;-72
2023/10/28 07:48:19;;;;;;;;;;;10.20;99.90;;;;;;5011272;28;19975;-72
2023/10/28 07:50:48;;;;;;;;;;;10.30;99.90;;;;;;5012074;28;19930;-72
2023/10/28 07:53:16;;;;;;;;;;;10.30;99.90;;;;;;5011950;28;19933;-72
2023/10/28 07:55:44;;;;;;;;;;;10.30;99.90;;;;;;5011872;28;19952;-72
2023/10/28 07:58:11;;;;;;;;;;;10.30;99.90;;;;;;5011713;28;19926;-72
2023/10/28 08:00:38;;;;;;;;;;;10.30;99.90;;;;;;5011667;28;19983;-72
2023/10/28 08:03:05;;;;;;;;;;;10.30;99.90;;;;;;5013055;28;19938;-72
2023/10/28 08:05:31;;;;;;;;;;;10.40;99.90;;;;;;5013806;28;19925;-73
2023/10/28 08:07:58;;;;;;;;;;;10.40;99.90;;;;;;5011865;28;19929;-72
2023/10/28 08:10:24;;;;;;;;;;;10.50;99.90;;;;;;5011319;28;20451;-72
2023/10/28 08:12:53;;;;;;;;;;;10.60;99.90;;;;;;5009981;28;19973;-73
2023/10/28 08:15:20;;;;;;;;;;;10.70;99.90;;;;;;5008761;28;19925;-72
2023/10/28 08:17:46;;;;;;;;;;;10.80;99.90;;;;;;5011760;28;19925;-72
2023/10/28 08:20:14;;;;;;;;;;;10.90;99.90;;;;;;5011697;28;20556;-72
2023/10/28 08:22:40;;;;;;;;;;;11.00;99.90;;;;;;5006050;28;19929;-72
2023/10/28 08:25:08;;;;;;;;;;;11.00;99.90;;;;;;5011508;28;19929;-72
2023/10/28 08:27:34;;;;;;;;;;;11.10;99.90;;;;;;5007654;28;20407;-72
2023/10/28 08:30:03;;;;;;;;;;;11.10;99.90;;;;;;5007914;28;19930;-72
2023/10/28 08:32:31;;;;;;;;;;;11.20;99.90;;;;;;5008029;28;20012;-72
2023/10/28 08:34:57;;;;;;;;;;;11.20;99.90;;;;;;5008325;28;19932;-72
2023/10/28 08:37:24;;;;;;;;;;;11.20;99.90;;;;;;5007466;28;19933;-72
2023/10/28 08:39:52;;;;;;;;;;;11.20;99.90;;;;;;5008197;28;19933;-72
2023/10/28 08:42:19;;;;;;;;;;;11.20;99.90;;;;;;5007311;28;19932;-72
2023/10/28 08:44:47;;;;;;;;;;;11.20;99.90;;;;;;5007305;28;19941;-72
2023/10/28 08:47:16;;;;;;;;;;;11.20;99.90;;;;;;5007661;28;19929;-72
2023/10/28 08:49:44;;;;;;;;;;;11.20;99.90;;;;;;5007909;28;20472;-71
2023/10/28 08:52:14;;;;;;;;;;;11.10;99.90;;;;;;5007562;28;19953;-72
2023/10/28 08:54:40;;;;;;;;;;;11.10;99.90;;;;;;5007743;28;20376;-72
2023/10/28 08:57:07;;;;;;;;;;;11.10;99.90;;;;;;5006565;28;20003;-72
2023/10/28 08:59:34;;;;;;;;;;;11.10;99.90;;;;;;5008376;28;19933;-72
2023/10/28 09:02:04;;;;;;;;;;;11.10;99.90;;;;;;5007474;28;21107;-71
2023/10/28 09:04:31;;;;;;;;;;;11.20;99.90;;;;;;5008019;28;20443;-71
2023/10/28 09:07:00;;;;;;;;;;;11.30;99.90;;;;;;5007161;28;19941;-72
2023/10/28 09:09:28;;;;;;;;;;;11.50;99.90;;;;;;5007547;28;19965;-71
2023/10/28 09:11:55;;;;;;;;;;;11.80;99.90;;;;;;5007307;28;19988;-73
2023/10/28 09:14:22;;;;;;;;;;;12.00;99.90;;;;;;5006914;28;19933;-73
2023/10/28 09:16:48;;;;;;;;;;;11.80;99.90;;;;;;5005917;28;19995;-74
2023/10/28 09:19:20;;;;;;;;;;;11.70;99.90;;;;;;5005610;28;19929;-72
2023/10/28 09:21:48;;;;;;;;;;;11.70;99.90;;;;;;5005382;28;20017;-72
2023/10/28 09:24:15;;;;;;;;;;;11.70;99.90;;;;;;5006555;28;20047;-73
2023/10/28 09:26:42;;;;;;;;;;;11.60;99.90;;;;;;5005094;28;19934;-73
2023/10/28 09:29:08;;;;;;;;;;;11.60;99.90;;;;;;5006458;28;20362;-74
2023/10/28 09:31:35;;;;;;;;;;;11.60;99.90;;;;;;5007069;28;19933;-72
2023/10/28 09:34:01;;;;;;;;;;;11.70;99.90;;;;;;5005784;28;20019;-74
2023/10/28 09:36:29;;;;;;;;;;;11.70;99.90;;;;;;5006362;28;19930;-74
2023/10/28 09:38:57;;;;;;;;;;;11.70;99.90;;;;;;5006445;28;19983;-73
2023/10/28 09:41:24;;;;;;;;;;;11.60;99.90;;;;;;5005288;28;19933;-73
2023/10/28 09:43:52;;;;;;;;;;;11.60;99.90;;;;;;5002682;28;19937;-73
2023/10/28 09:46:20;;;;;;;;;;;11.40;99.90;;;;;;5005106;28;19933;-72
2023/10/28 09:48:48;;;;;;;;;;;11.30;99.90;;;;;;5004255;28;20391;-71
2023/10/28 09:51:18;;;;;;;;;;;11.30;99.90;;;;;;5006924;28;20635;-72
2023/10/28 09:53:48;;;;;;;;;;;11.30;99.90;;;;;;5006854;28;19926;-72
2023/10/28 09:56:16;;;;;;;;;;;11.30;99.90;;;;;;5005929;28;20346;-72
2023/10/28 09:58:46;;;;;;;;;;;11.30;99.90;;;;;;5004641;28;19934;-72
2023/10/28 10:01:17;;;;;;;;;;;11.30;99.90;;;;;;5007946;28;20351;-72
2023/10/28 10:03:50;;;;;;;;;;;11.40;99.90;;;;;;5008213;28;19925;-72
2023/10/28 10:06:17;;;;;;;;;;;11.40;99.90;;;;;;5010786;28;20437;-71
2023/10/28 10:08:48;;;;;;;;;;;11.50;99.90;;;;;;5010568;28;20366;-72
2023/10/28 10:11:21;;;;;;;;;;;11.40;99.90;;;;;;5010975;28;19925;-72
2023/10/28 10:13:48;;;;;;;;;;;11.50;99.90;;;;;;5011101;28;20383;-72
2023/10/28 10:16:19;;;;;;;;;;;11.50;99.90;;;;;;5010723;28;20306;-72
2023/10/28 10:18:47;;;;;;;;;;;11.60;99.90;;;;;;5009533;28;19980;-71
2023/10/28 10:21:18;;;;;;;;;;;11.70;99.90;;;;;;5010992;28;20280;-71
2023/10/28 10:23:45;;;;;;;;;;;11.80;99.90;;;;;;5011118;28;20318;-72
2023/10/28 10:26:25;;;;;;;;;;;11.90;99.90;;;;;;5012030;28;19929;-71
2023/10/28 10:28:53;;;;;;;;;;;12.10;99.90;;;;;;5009111;28;19995;-71
2023/10/28 10:31:22;;;;;;;;;;;12.10;99.90;;;;;;5011093;28;19936;-72
2023/10/28 10:33:58;;;;;;;;;;;12.20;99.90;;;;;;5011019;28;19955;-71
2023/10/28 10:36:27;;;;;;;;;;;12.20;99.90;;;;;;5010734;28;19926;-71
2023/10/28 10:38:53;;;;;;;;;;;12.30;99.90;;;;;;5010754;28;19932;-71
2023/10/28 10:41:26;;;;;;;;;;;12.20;99.90;;;;;;5010780;28;19925;-72
2023/10/28 10:43:53;;;;;;;;;;;12.30;99.90;;;;;;5011153;28;19926;-71
2023/10/28 10:46:19;;;;;;;;;;;12.40;99.90;;;;;;5013235;28;19972;-71
2023/10/28 10:48:47;;;;;;;;;;;12.50;99.90;;;;;;5014104;28;19933;-72
2023/10/28 10:51:14;;;;;;;;;;;12.60;99.90;;;;;;5014401;28;19925;-71
2023/10/28 10:53:41;;;;;;;;;;;12.60;99.90;;;;;;5015001;28;19979;-71
2023/10/28 10:56:18;;;;;;;;;;;12.60;99.90;;;;;;5013864;28;19929;-71
2023/10/28 10:58:45;;;;;;;;;;;12.50;99.90;;;;;;5014015;28;19979;-71
2023/10/28 11:01:12;;;;;;;;;;;12.50;99.90;;;;;;5014014;28;20379;-72
2023/10/28 11:03:39;;;;;;;;;;;12.50;99.90;;;;;;5013805;28;19925;-72
2023/10/28 11:06:06;;;;;;;;;;;12.40;99.90;;;;;;5013896;28;19956;-72
2023/10/28 11:08:34;;;;;;;;;;;12.40;99.90;;;;;;5013907;28;19930;-72
2023/10/28 11:11:03;;;;;;;;;;;12.50;99.90;;;;;;5014093;28;19972;-71
2023/10/28 11:13:30;;;;;;;;;;;12.50;99.90;;;;;;5013592;28;20418;-71
2023/10/28 11:15:59;;;;;;;;;;;12.50;99.90;;;;;;5013752;28;19984;-71
2023/10/28 11:18:26;;;;;;;;;;;12.60;99.90;;;;;;5013355;28;20613;-71
2023/10/28 11:20:52;;;;;;;;;;;12.60;99.90;;;;;;5013717;28;20318;-71
2023/10/28 11:23:19;;;;;;;;;;;12.80;99.90;;;;;;5014185;28;19930;-72
2023/10/28 11:25:48;;;;;;;;;;;12.90;99.90;;;;;;5013583;28;19925;-72
2023/10/28 11:28:14;;;;;;;;;;;13.00;99.90;;;;;;5008870;28;19984;-71
2023/10/28 11:30:48;;;;;;;;;;;13.10;99.90;;;;;;5013493;28;19972;-71
2023/10/28 11:33:16;;;;;;;;;;;13.10;99.90;;;;;;5013155;28;19987;-71
2023/10/28 11:35:43;;;;;;;;;;;13.20;99.90;;;;;;5013357;28;19992;-71
2023/10/28 11:38:10;;;;;;;;;;;13.10;99.90;;;;;;5013315;28;19929;-72
2023/10/28 11:40:37;;;;;;;;;;;13.10;99.90;;;;;;5013500;28;19957;-72
2023/10/28 11:43:04;;;;;;;;;;;13.00;99.90;;;;;;5013388;28;19929;-72
2023/10/28 11:45:30;;;;;;;;;;;13.00;99.90;;;;;;5013157;28;19925;-72
2023/10/28 11:47:57;;;;;;;;;;;12.90;99.90;;;;;;5012698;28;19980;-72
2023/10/28 11:50:24;;;;;;;;;;;13.00;99.90;;;;;;5014513;28;20053;-72
2023/10/28 11:52:51;;;;;;;;;;;13.00;99.90;;;;;;5013115;28;19925;-72
2023/10/28 11:55:17;;;;;;;;;;;13.10;99.90;;;;;;5013410;28;19988;-72
2023/10/28 11:57:44;;;;;;;;;;;13.10;99.90;;;;;;5011383;28;19925;-72
2023/10/28 12:00:11;;;;;;;;;;;13.20;99.90;;;;;;5013230;28;19925;-72
2023/10/28 12:02:38;;;;;;;;;;;13.20;99.90;;;;;;5012787;28;19930;-72
2023/10/28 12:05:05;;;;;;;;;;;13.10;99.90;;;;;;5009973;28;20350;-72
2023/10/28 12:07:33;;;;;;;;;;;13.10;99.90;;;;;;5012415;28;19925;-72
2023/10/28 12:09:59;;;;;;;;;;;13.00;99.90;;;;;;5013020;28;19944;-72
2023/10/28 12:12:26;;;;;;;;;;;13.00;99.90;;;;;;5012712;28;20399;-72
2023/10/28 12:14:52;;;;;;;;;;;12.90;99.90;;;;;;5012773;28;19933;-72
2023/10/28 12:17:20;;;;;;;;;;;12.90;99.90;;;;;;5012389;28;19926;-71
2023/10/28 12:19:47;;;;;;;;;;;12.80;99.90;;;;;;5012115;28;19972;-72
2023/10/28 12:22:13;;;;;;;;;;;12.80;99.90;;;;;;5012655;28;20431;-72
2023/10/28 12:24:41;;;;;;;;;;;12.70;99.90;;;;;;5012592;28;19925;-72
2023/10/28 12:27:09;;;;;;;;;;;12.70;99.90;;;;;;5012105;28;20442;-72
2023/10/28 12:29:36;;;;;;;;;;;12.70;99.90;;;;;;5011909;28;19929;-73
2023/10/28 12:32:03;;;;;;;;;;;12.80;99.90;;;;;;5012476;28;20384;-72
2023/10/28 12:34:29;;;;;;;;;;;12.80;99.90;;;;;;5012484;28;19980;-72
2023/10/28 12:36:57;;;;;;;;;;;12.80;99.90;;;;;;5012273;28;19969;-72
2023/10/28 12:39:23;;;;;;;;;;;12.80;99.90;;;;;;5012116;28;19969;-72
2023/10/28 12:41:51;;;;;;;;;;;12.90;99.90;;;;;;5012334;28;20359;-72
2023/10/28 12:44:18;;;;;;;;;;;12.90;99.90;;;;;;5012181;28;19926;-72
2023/10/28 12:46:45;;;;;;;;;;;13.00;99.90;;;;;;5013061;28;19980;-73
2023/10/28 12:49:11;;;;;;;;;;;13.00;99.90;;;;;;5012262;28;19932;-72
2023/10/28 12:51:38;;;;;;;;;;;13.00;99.90;;;;;;5012093;28;19925;-72
2023/10/28 12:54:05;;;;;;;;;;;13.00;99.90;;;;;;5005394;28;19926;-73
2023/10/28 12:56:32;;;;;;;;;;;13.00;99.90;;;;;;5011966;28;19925;-72
2023/10/28 12:59:00;;;;;;;;;;;13.10;99.90;;;;;;5011924;28;19934;-72
2023/10/28 13:01:27;;;;;;;;;;;13.00;99.90;;;;;;5011964;28;20395;-72
2023/10/28 13:03:55;;;;;;;;;;;13.00;99.90;;;;;;5011915;28;19933;-73
2023/10/28 13:06:22;;;;;;;;;;;12.90;99.90;;;;;;5011834;28;19968;-72
2023/10/28 13:08:48;;;;;;;;;;;12.90;99.90;;;;;;5011165;28;19932;-72
2023/10/28 13:11:15;;;;;;;;;;;12.90;99.90;;;;;;5011637;28;19932;-73
2023/10/28 13:13:42;;;;;;;;;;;12.90;99.90;;;;;;5015150;28;19929;-73
2023/10/28 13:16:10;;;;;;;;;;;12.90;99.90;;;;;;5012008;28;20016;-73
2023/10/28 13:18:36;;;;;;;;;;;12.90;99.90;;;;;;5011567;28;19984;-72
2023/10/28 13:21:03;;;;;;;;;;;12.90;99.90;;;;;;5011786;28;19929;-72
2023/10/28 13:23:30;;;;;;;;;;;12.80;99.90;;;;;;5011413;28;20008;-72
2023/10/28 13:25:57;;;;;;;;;;;12.90;99.90;;;;;;5011227;28;19969;-72
2023/10/28 13:28:23;;;;;;;;;;;12.80;99.90;;;;;;5011418;28;19926;-72
2023/10/28 13:30:49;;;;;;;;;;;12.80;99.90;;;;;;5011666;28;19929;-72
2023/10/28 13:33:17;;;;;;;;;;;12.70;99.90;;;;;;5011584;28;19980;-71
2023/10/28 13:35:44;;;;;;;;;;;12.70;99.90;;;;;;5011145;28;19925;-72
2023/10/28 13:38:11;;;;;;;;;;;12.70;99.90;;;;;;5011306;28;19979;-72
2023/10/28 13:40:38;;;;;;;;;;;12.80;99.90;;;;;;5011342;28;20008;-72
2023/10/28 13:43:04;;;;;;;;;;;12.70;99.90;;;;;;5013468;28;20414;-72
2023/10/28 13:45:32;;;;;;;;;;;12.70;99.90;;;;;;5011340;28;19933;-72
2023/10/28 13:47:59;;;;;;;;;;;12.70;99.90;;;;;;5011119;28;19929;-72
2023/10/28 13:50:27;;;;;;;;;;;12.70;99.90;;;;;;5011522;28;19926;-72
2023/10/28 13:52:54;;;;;;;;;;;12.70;99.90;;;;;;5011262;28;19925;-72
2023/10/28 13:55:20;;;;;;;;;;;12.70;99.90;;;;;;5011498;28;19926;-71
2023/10/28 13:57:47;;;;;;;;;;;12.80;99.90;;;;;;5010881;28;20434;-72
2023/10/28 14:00:14;;;;;;;;;;;12.80;99.90;;;;;;5011472;28;19925;-72
2023/10/28 14:02:41;;;;;;;;;;;12.80;99.90;;;;;;5011398;28;19926;-72
2023/10/28 14:05:08;;;;;;;;;;;12.80;99.90;;;;;;5011152;28;20012;-72
2023/10/28 14:07:37;;;;;;;;;;;12.80;99.90;;;;;;5007284;28;20422;-72
2023/10/28 14:10:03;;;;;;;;;;;12.70;99.90;;;;;;5014628;28;19926;-72
2023/10/28 14:12:31;;;;;;;;;;;12.70;99.90;;;;;;5011488;28;19926;-72
2023/10/28 14:14:58;;;;;;;;;;;12.60;99.90;;;;;;5011030;28;19991;-72
2023/10/28 14:17:26;;;;;;;;;;;12.60;99.90;;;;;;5012736;28;19932;-72
2023/10/28 14:19:52;;;;;;;;;;;12.50;99.90;;;;;;5012040;28;19933;-72
2023/10/28 14:22:22;;;;;;;;;;;12.50;99.90;;;;;;5015206;28;20335;-71